Time;durP1;ratioP1;P1;durP2;ratioP2;P2;SDS_P1;SDS_P2;PMS_P1;PMS_P2;Temp;Humidity;BMP_temperature;BMP_pressure;BME280_temperature;BME280_humidity;BME280_pressure;Samples;Min_cycle;Max_cycle;Signal;HPM_P1;HPM_P2
2021/08/31 00:01:00;;;;;;;15.13;12.30;;;16.70;99.90;;;;;;4950336;28;20918;-70
2021/08/31 00:03:28;;;;;;;13.80;9.60;;;16.80;99.90;;;;;;4947948;28;20459;-68
2021/08/31 00:05:55;;;;;;;18.63;11.10;;;16.80;99.90;;;;;;4946490;28;20621;-65
2021/08/31 00:08:23;;;;;;;18.50;11.57;;;16.90;99.90;;;;;;4950384;28;20924;-61
2021/08/31 00:10:50;;;;;;;17.30;14.50;;;16.90;99.90;;;;;;4940013;29;20423;-67
2021/08/31 00:13:18;;;;;;;16.97;13.73;;;17.00;99.90;;;;;;4943218;28;20429;-60
2021/08/31 00:15:45;;;;;;;16.93;13.33;;;17.20;99.90;;;;;;4951457;28;21086;-64
2021/08/31 00:18:13;;;;;;;14.20;9.63;;;17.50;99.90;;;;;;4947530;28;20441;-64
2021/08/31 00:20:40;;;;;;;14.80;11.20;;;17.60;99.90;;;;;;4955019;28;20908;-62
2021/08/31 00:23:07;;;;;;;14.80;10.20;;;17.80;99.80;;;;;;4955054;28;20458;-62
2021/08/31 00:25:35;;;;;;;15.73;11.53;;;17.90;99.30;;;;;;4951470;28;20485;-68
2021/08/31 00:28:02;;;;;;;15.13;11.10;;;18.10;98.80;;;;;;4948577;28;21053;-63
2021/08/31 00:30:29;;;;;;;14.33;10.37;;;18.10;99.00;;;;;;4950494;28;20448;-67
2021/08/31 00:32:57;;;;;;;14.27;10.37;;;18.00;98.70;;;;;;4949663;28;20836;-63
2021/08/31 00:35:24;;;;;;;13.87;9.53;;;18.30;98.60;;;;;;4954522;28;20931;-65
2021/08/31 00:37:51;;;;;;;13.93;11.37;;;18.50;97.80;;;;;;4954357;28;20451;-65
2021/08/31 00:40:19;;;;;;;13.23;9.77;;;18.60;97.50;;;;;;4954453;28;20417;-65
2021/08/31 00:42:46;;;;;;;16.13;14.47;;;18.60;97.50;;;;;;4953540;28;20922;-70
2021/08/31 00:45:13;;;;;;;12.63;8.37;;;18.80;96.80;;;;;;4954225;28;20431;-67
2021/08/31 00:47:41;;;;;;;11.47;8.50;;;19.00;95.70;;;;;;4955094;28;20551;-68
2021/08/31 00:50:08;;;;;;;13.00;10.73;;;18.90;96.10;;;;;;4938187;28;20463;-62
2021/08/31 00:52:39;;;;;;;16.60;13.33;;;19.10;94.70;;;;;;4954741;28;20967;-61
2021/08/31 00:55:09;;;;;;;11.93;9.07;;;19.20;94.70;;;;;;4947316;28;20436;-59
2021/08/31 00:57:41;;;;;;;12.33;9.53;;;19.30;94.20;;;;;;4955048;28;20511;-62
2021/08/31 01:00:14;;;;;;;11.90;8.40;;;19.30;93.40;;;;;;4953835;28;20426;-61
2021/08/31 01:02:45;;;;;;;13.33;10.63;;;19.40;92.20;;;;;;4954210;28;20526;-63
2021/08/31 01:05:13;;;;;;;13.00;10.10;;;19.60;93.00;;;;;;4954794;28;20895;-59
2021/08/31 01:07:41;;;;;;;12.03;8.67;;;19.60;92.60;;;;;;4954508;28;20406;-63
2021/08/31 01:10:09;;;;;;;13.83;11.07;;;19.70;91.30;;;;;;4953865;28;20464;-64
2021/08/31 01:12:37;;;;;;;13.33;11.27;;;19.80;90.20;;;;;;4950450;28;20969;-59
2021/08/31 01:15:05;;;;;;;14.10;11.67;;;20.00;90.40;;;;;;4953785;28;20424;-60
2021/08/31 01:17:34;;;;;;;11.43;7.63;;;19.90;88.60;;;;;;4951374;29;20449;-60
2021/08/31 01:20:02;;;;;;;10.33;9.03;;;19.80;88.30;;;;;;4948020;28;21008;-71
2021/08/31 01:22:30;;;;;;;14.23;12.70;;;20.10;87.60;;;;;;4954326;28;20409;-59
2021/08/31 01:25:04;;;;;;;10.63;9.10;;;20.00;88.60;;;;;;4950444;28;20678;-65
2021/08/31 01:27:31;;;;;;;11.40;10.03;;;20.40;87.50;;;;;;4943834;28;20838;-61
2021/08/31 01:29:59;;;;;;;10.77;9.70;;;20.50;86.50;;;;;;4936398;28;20495;-65
2021/08/31 01:32:27;;;;;;;11.10;9.80;;;20.80;85.30;;;;;;4954243;28;20194;-66
2021/08/31 01:34:55;;;;;;;9.93;8.30;;;20.80;84.50;;;;;;4948846;28;20435;-66
2021/08/31 01:37:22;;;;;;;595.60;189.70;;;20.90;83.80;;;;;;4944732;28;20188;-59
2021/08/31 01:39:50;;;;;;;603.90;185.37;;;21.10;83.30;;;;;;4953564;29;20420;-60
2021/08/31 01:42:17;;;;;;;639.47;203.87;;;21.10;82.30;;;;;;4950183;28;20462;-68
2021/08/31 01:44:44;;;;;;;431.23;134.57;;;21.20;80.90;;;;;;4936761;28;20494;-60
2021/08/31 01:47:12;;;;;;;647.13;209.87;;;21.20;79.90;;;;;;4935046;29;20414;-64
2021/08/31 01:49:39;;;;;;;424.13;195.33;;;21.00;79.70;;;;;;4948642;28;20797;-59
2021/08/31 01:52:07;;;;;;;375.47;151.53;;;21.00;79.90;;;;;;4936773;28;20893;-61
2021/08/31 01:54:34;;;;;;;680.60;400.30;;;21.30;80.30;;;;;;4953040;28;20436;-58
2021/08/31 01:57:01;;;;;;;486.80;302.93;;;21.70;79.70;;;;;;4953428;28;20919;-65
2021/08/31 01:59:29;;;;;;;742.87;554.53;;;21.90;79.10;;;;;;4954036;29;20605;-59
2021/08/31 02:01:56;;;;;;;476.00;284.60;;;21.70;77.60;;;;;;4953974;28;20441;-67
2021/08/31 02:04:24;;;;;;;776.47;602.20;;;21.80;78.20;;;;;;4941333;29;21044;-62
2021/08/31 02:06:51;;;;;;;736.00;517.07;;;21.70;78.30;;;;;;4942846;28;20521;-65
2021/08/31 02:09:18;;;;;;;730.93;458.93;;;21.70;76.90;;;;;;4952569;28;20828;-66
2021/08/31 02:11:46;;;;;;;771.50;584.03;;;22.00;76.60;;;;;;4952162;28;20784;-64
2021/08/31 02:14:13;;;;;;;737.67;532.87;;;22.10;76.40;;;;;;4952315;28;20441;-62
2021/08/31 02:16:41;;;;;;;1040.63;676.53;;;22.10;76.00;;;;;;4953381;28;20481;-60
2021/08/31 02:19:08;;;;;;;735.13;518.63;;;22.70;73.90;;;;;;4953817;28;20418;-67
2021/08/31 02:21:36;;;;;;;781.37;610.70;;;22.70;74.00;;;;;;4937123;28;20441;-60
2021/08/31 02:24:03;;;;;;;749.70;520.10;;;22.90;72.00;;;;;;4940460;28;20278;-61
2021/08/31 02:26:32;;;;;;;1048.20;707.93;;;23.00;70.90;;;;;;4951915;28;20512;-65
2021/08/31 02:29:00;;;;;;;772.13;580.17;;;23.00;71.60;;;;;;4955591;28;21010;-66
2021/08/31 02:31:27;;;;;;;731.97;476.90;;;23.50;70.50;;;;;;4954155;28;20183;-60
2021/08/31 02:33:55;;;;;;;1010.53;611.37;;;23.00;70.40;;;;;;4955530;28;20444;-73
2021/08/31 02:36:22;;;;;;;751.60;531.27;;;23.20;70.50;;;;;;4951352;28;20461;-67
2021/08/31 02:38:50;;;;;;;776.37;533.50;;;23.50;71.00;;;;;;4953083;28;20520;-64
2021/08/31 02:41:17;;;;;;;1071.83;760.47;;;23.40;70.20;;;;;;4956807;28;20175;-65
2021/08/31 02:43:44;;;;;;;1094.53;757.30;;;23.40;68.90;;;;;;4956356;28;20556;-73
2021/08/31 02:46:11;;;;;;;1073.60;755.27;;;23.20;69.30;;;;;;4957016;29;20425;-69
2021/08/31 02:48:43;;;;;;;767.17;570.73;;;23.30;68.20;;;;;;4948422;28;20465;-65
2021/08/31 02:51:11;;;;;;;767.53;585.80;;;23.70;67.70;;;;;;4930836;29;20195;-65
2021/08/31 02:53:38;;;;;;;421.53;302.67;;;24.10;67.50;;;;;;4954482;28;20191;-67
2021/08/31 02:56:06;;;;;;;762.60;579.43;;;23.50;66.30;;;;;;4948877;28;20187;-66
2021/08/31 02:58:33;;;;;;;783.53;565.43;;;23.10;67.20;;;;;;4946684;28;20196;-61
2021/08/31 03:03:48;;;;;;;1102.77;791.97;;;24.10;64.80;;;;;;4956737;28;20572;-68
2021/08/31 03:06:16;;;;;;;788.83;569.20;;;23.90;64.50;;;;;;4956751;28;20425;-61
2021/08/31 03:08:43;;;;;;;1098.73;790.27;;;24.20;63.60;;;;;;4955691;28;20179;-65
2021/08/31 03:11:10;;;;;;;797.53;590.47;;;24.10;64.10;;;;;;4956494;29;20410;-70
2021/08/31 03:13:38;;;;;;;1127.83;813.37;;;24.20;63.20;;;;;;4955306;28;20265;-67
2021/08/31 03:16:05;;;;;;;817.00;615.07;;;24.10;62.10;;;;;;4956615;28;20184;-72
2021/08/31 03:18:32;;;;;;;780.80;596.23;;;23.90;63.50;;;;;;4956507;29;20187;-71
2021/08/31 03:21:00;;;;;;;1085.27;827.37;;;24.20;62.20;;;;;;4949904;28;20188;-65
2021/08/31 03:23:27;;;;;;;779.30;610.03;;;24.30;62.40;;;;;;4938946;28;20210;-69
2021/08/31 03:25:55;;;;;;;728.63;585.77;;;24.10;62.30;;;;;;4948208;28;20261;-69
2021/08/31 03:28:22;;;;;;;1078.30;849.93;;;24.80;62.00;;;;;;4955865;28;20192;-71
2021/08/31 03:30:49;;;;;;;1106.63;868.03;;;25.20;61.60;;;;;;4941337;28;20196;-69
2021/08/31 03:33:17;;;;;;;756.73;599.90;;;25.30;60.40;;;;;;4955853;28;20274;-63
2021/08/31 03:35:45;;;;;;;798.30;605.53;;;25.20;58.90;;;;;;4955298;28;20194;-61
2021/08/31 03:38:12;;;;;;;794.30;612.60;;;25.30;58.70;;;;;;4919464;29;20560;-61
2021/08/31 03:40:40;;;;;;;1097.30;744.00;;;26.30;58.00;;;;;;4950747;28;20191;-68
2021/08/31 03:43:07;;;;;;;497.60;213.10;;;26.50;57.80;;;;;;4954043;28;20768;-63
2021/08/31 03:45:34;;;;;;;544.70;224.93;;;25.90;57.20;;;;;;4951371;28;20266;-60
2021/08/31 03:48:02;;;;;;;407.73;158.00;;;25.10;62.00;;;;;;4951840;28;20184;-59
2021/08/31 03:50:29;;;;;;;207.33;77.77;;;24.70;63.20;;;;;;4955834;29;20187;-60
2021/08/31 03:52:56;;;;;;;595.17;219.23;;;24.80;64.30;;;;;;4955656;28;20187;-65
2021/08/31 03:55:24;;;;;;;629.67;304.10;;;25.20;64.60;;;;;;4955812;28;20254;-64
2021/08/31 03:57:51;;;;;;;1096.23;752.57;;;24.90;65.40;;;;;;4945402;28;20192;-67
2021/08/31 04:00:19;;;;;;;677.67;270.90;;;25.00;66.20;;;;;;4948945;28;20190;-71
2021/08/31 04:02:46;;;;;;;695.87;338.57;;;24.50;67.40;;;;;;4940506;28;20184;-69
2021/08/31 04:05:13;;;;;;;786.93;546.33;;;24.40;67.80;;;;;;4947810;28;20219;-68
2021/08/31 04:07:41;;;;;;;1115.10;799.30;;;24.60;67.50;;;;;;4948612;28;20277;-68
2021/08/31 04:10:09;;;;;;;812.47;626.53;;;24.50;66.90;;;;;;4952616;28;20180;-61
2021/08/31 04:12:36;;;;;;;803.00;601.23;;;25.10;66.90;;;;;;4954648;28;20191;-65
2021/08/31 04:15:04;;;;;;;790.20;565.23;;;24.90;66.80;;;;;;4940730;28;20184;-67
2021/08/31 04:17:32;;;;;;;636.03;218.63;;;25.10;66.00;;;;;;4949197;29;20187;-70
2021/08/31 04:19:59;;;;;;;606.10;222.10;;;25.30;66.50;;;;;;4949630;28;20211;-71
2021/08/31 04:22:26;;;;;;;559.67;219.40;;;25.70;66.20;;;;;;4946852;28;20242;-74
2021/08/31 04:24:54;;;;;;;317.33;125.20;;;26.30;65.10;;;;;;4936315;29;20596;-67
2021/08/31 04:27:21;;;;;;;23.67;8.13;;;25.70;65.40;;;;;;4944033;28;20176;-70
2021/08/31 04:29:48;;;;;;;456.43;187.40;;;25.20;65.40;;;;;;4943167;28;20267;-71
2021/08/31 04:32:16;;;;;;;12.60;5.20;;;24.60;65.90;;;;;;4955135;28;20179;-68
2021/08/31 04:34:44;;;;;;;24.43;12.70;;;24.40;66.50;;;;;;4953524;29;20713;-61
2021/08/31 04:37:11;;;;;;;18.67;10.27;;;24.50;67.00;;;;;;4954305;28;20174;-71
2021/08/31 04:39:39;;;;;;;14.17;7.73;;;24.40;67.00;;;;;;4954227;28;20194;-66
2021/08/31 04:42:06;;;;;;;13.10;6.00;;;24.30;67.70;;;;;;4954752;29;20317;-72
2021/08/31 04:44:34;;;;;;;480.27;197.83;;;24.60;68.40;;;;;;4952747;28;20215;-68
2021/08/31 04:47:01;;;;;;;183.90;69.07;;;24.90;67.20;;;;;;4952677;28;20214;-67
2021/08/31 04:49:29;;;;;;;340.13;135.73;;;24.90;67.20;;;;;;4949797;28;20207;-70
2021/08/31 04:51:56;;;;;;;523.90;215.30;;;24.30;68.60;;;;;;4942444;28;20191;-71
2021/08/31 04:54:24;;;;;;;548.03;221.30;;;25.00;67.80;;;;;;4946717;28;20518;-59
2021/08/31 04:56:51;;;;;;;595.30;237.10;;;24.90;66.80;;;;;;4954242;29;20234;-68
2021/08/31 04:59:19;;;;;;;939.73;414.40;;;24.50;68.00;;;;;;4953570;28;20191;-70
2021/08/31 05:01:46;;;;;;;669.03;299.90;;;24.40;68.60;;;;;;4951026;28;20537;-59
2021/08/31 05:04:14;;;;;;;729.50;451.93;;;25.10;68.00;;;;;;4953589;28;20255;-59
2021/08/31 05:06:41;;;;;;;1011.53;588.33;;;25.80;66.90;;;;;;4954006;28;20565;-59
2021/08/31 05:09:09;;;;;;;714.97;391.37;;;25.70;67.70;;;;;;4954522;29;20179;-62
2021/08/31 05:11:37;;;;;;;679.97;255.67;;;25.90;68.00;;;;;;4954467;28;20602;-60
2021/08/31 05:14:05;;;;;;;986.27;541.87;;;25.70;68.20;;;;;;4954594;28;20260;-60
2021/08/31 05:16:33;;;;;;;1060.80;679.77;;;25.80;68.60;;;;;;4954528;29;20171;-62
2021/08/31 05:19:01;;;;;;;785.13;603.40;;;26.10;68.50;;;;;;4951420;28;20183;-60
2021/08/31 05:21:31;;;;;;;1124.37;806.70;;;25.70;69.50;;;;;;4953873;29;20643;-72
2021/08/31 05:23:59;;;;;;;1069.55;952.22;;;25.20;70.30;;;;;;4953279;28;20421;-68
2021/08/31 05:26:26;;;;;;;811.97;611.90;;;25.50;70.90;;;;;;4950399;28;20190;-73
2021/08/31 05:28:53;;;;;;;797.73;598.73;;;25.90;70.70;;;;;;4949632;28;20187;-66
2021/08/31 05:31:21;;;;;;;725.97;494.17;;;25.50;70.80;;;;;;4942070;28;20223;-59
2021/08/31 05:33:48;;;;;;;974.20;485.53;;;25.20;72.00;;;;;;4950201;28;20191;-59
2021/08/31 05:36:16;;;;;;;1011.03;608.37;;;25.70;71.50;;;;;;4953059;28;20188;-59
2021/08/31 05:38:43;;;;;;;969.87;448.10;;;25.70;71.00;;;;;;4940577;28;20195;-59
2021/08/31 05:41:11;;;;;;;737.50;471.30;;;25.60;71.80;;;;;;4950256;28;20246;-60
2021/08/31 05:43:38;;;;;;;794.53;584.53;;;25.90;71.30;;;;;;4953637;28;20662;-60
2021/08/31 05:46:05;;;;;;;1127.40;825.60;;;25.90;71.00;;;;;;4950395;28;20187;-60
2021/08/31 05:48:33;;;;;;;1145.07;856.07;;;25.50;72.00;;;;;;4949284;28;20187;-59
2021/08/31 05:51:01;;;;;;;1107.57;869.57;;;25.60;71.70;;;;;;4943300;29;20194;-68
2021/08/31 05:53:28;;;;;;;812.87;626.73;;;25.90;70.90;;;;;;4942042;28;20274;-59
2021/08/31 05:55:55;;;;;;;1066.40;692.43;;;25.60;71.30;;;;;;4950932;28;20604;-61
2021/08/31 05:58:23;;;;;;;704.97;449.37;;;25.70;70.60;;;;;;4953781;28;20180;-59
2021/08/31 06:00:50;;;;;;;690.87;334.77;;;25.50;70.90;;;;;;4950550;28;20190;-63
2021/08/31 06:03:18;;;;;;;954.60;441.73;;;25.60;70.70;;;;;;4951437;28;20223;-60
2021/08/31 06:05:47;;;;;;;675.27;251.83;;;25.50;70.60;;;;;;4946993;28;20196;-59
2021/08/31 06:08:14;;;;;;;938.20;376.37;;;25.30;70.00;;;;;;4955377;28;20183;-59
2021/08/31 06:10:43;;;;;;;644.30;238.23;;;25.70;70.00;;;;;;4955875;28;20191;-59
2021/08/31 06:13:11;;;;;;;671.13;241.67;;;25.90;69.40;;;;;;4957326;28;20277;-72
2021/08/31 06:15:38;;;;;;;930.10;360.33;;;26.30;69.20;;;;;;4956221;28;20646;-67
2021/08/31 06:18:06;;;;;;;933.47;360.90;;;25.90;68.60;;;;;;4956447;28;20646;-65
2021/08/31 06:20:33;;;;;;;669.37;244.50;;;25.10;69.10;;;;;;4952732;28;20238;-60
2021/08/31 06:23:00;;;;;;;647.07;227.63;;;25.10;69.60;;;;;;4949650;28;20187;-66
2021/08/31 06:25:28;;;;;;;649.63;246.03;;;24.90;69.00;;;;;;4950868;28;20210;-66
2021/08/31 06:27:55;;;;;;;772.70;546.10;;;24.50;69.50;;;;;;4956250;28;20270;-69
2021/08/31 06:30:22;;;;;;;956.87;376.70;;;23.90;71.40;;;;;;4957376;29;20179;-63
2021/08/31 06:32:50;;;;;;;891.07;326.07;;;23.40;72.40;;;;;;4955186;28;20187;-68
2021/08/31 06:35:17;;;;;;;628.23;221.17;;;22.80;73.40;;;;;;4952501;28;21172;-60
2021/08/31 06:37:44;;;;;;;643.43;223.53;;;22.80;74.40;;;;;;4953159;28;20433;-67
2021/08/31 06:40:12;;;;;;;638.53;218.27;;;23.30;73.40;;;;;;4943436;28;20190;-71
2021/08/31 06:42:40;;;;;;;894.13;344.20;;;23.40;72.40;;;;;;4944598;28;20247;-65
2021/08/31 06:45:08;;;;;;;941.77;372.90;;;23.70;72.80;;;;;;4952539;28;20509;-72
2021/08/31 06:47:35;;;;;;;659.00;214.77;;;23.70;72.30;;;;;;4956164;28;20433;-73
2021/08/31 06:50:02;;;;;;;645.13;215.23;;;23.50;72.90;;;;;;4950319;28;20247;-71
2021/08/31 06:52:30;;;;;;;633.47;221.40;;;23.00;72.90;;;;;;4949916;28;20184;-69
2021/08/31 06:54:57;;;;;;;599.93;210.87;;;22.50;74.30;;;;;;4962763;28;20530;-72
2021/08/31 06:57:24;;;;;;;9.77;8.57;;;22.20;75.40;;;;;;4952854;28;20421;-70
2021/08/31 06:59:52;;;;;;;8.37;5.23;;;21.80;76.50;;;;;;4954659;28;20187;-71
2021/08/31 07:02:19;;;;;;;9.20;6.80;;;21.60;76.80;;;;;;4954771;28;20672;-68
2021/08/31 07:04:47;;;;;;;9.17;6.97;;;21.30;77.40;;;;;;4956227;28;20559;-71
2021/08/31 07:07:14;;;;;;;9.03;6.17;;;21.10;77.70;;;;;;4956723;29;20183;-72
2021/08/31 07:09:41;;;;;;;11.30;6.47;;;20.80;77.50;;;;;;4956689;28;20693;-72
2021/08/31 07:12:11;;;;;;;9.50;6.33;;;20.60;78.80;;;;;;4943576;29;20270;-71
2021/08/31 07:14:39;;;;;;;10.07;7.97;;;20.40;78.80;;;;;;4955033;28;20214;-68
2021/08/31 07:17:06;;;;;;;9.70;6.80;;;20.30;79.30;;;;;;4956184;29;20276;-73
2021/08/31 07:19:34;;;;;;;9.37;6.33;;;20.30;79.90;;;;;;4949952;28;20238;-72
2021/08/31 07:22:01;;;;;;;9.93;7.87;;;20.20;80.30;;;;;;4941432;29;20517;-73
2021/08/31 07:24:29;;;;;;;10.50;8.30;;;20.00;80.40;;;;;;4953803;28;20222;-72
2021/08/31 07:26:56;;;;;;;8.03;4.70;;;19.80;80.80;;;;;;4954822;28;20218;-72
2021/08/31 07:29:23;;;;;;;9.37;6.63;;;19.80;81.20;;;;;;4951964;29;20193;-73
2021/08/31 07:31:52;;;;;;;11.03;9.33;;;19.70;81.60;;;;;;4955559;29;20478;-67
2021/08/31 07:34:20;;;;;;;9.07;6.37;;;19.60;82.00;;;;;;4952126;28;20475;-61
2021/08/31 07:36:47;;;;;;;11.50;8.20;;;19.50;82.60;;;;;;4952766;28;20945;-60
2021/08/31 07:39:15;;;;;;;10.10;8.20;;;19.30;82.80;;;;;;4939612;29;20186;-63
2021/08/31 07:41:42;;;;;;;11.23;8.70;;;19.20;82.80;;;;;;4951205;28;20436;-61
2021/08/31 07:44:10;;;;;;;8.03;4.87;;;19.10;83.00;;;;;;4954767;29;20552;-61
2021/08/31 07:46:40;;;;;;;11.63;10.20;;;19.10;83.20;;;;;;4952911;29;20425;-59
2021/08/31 07:49:07;;;;;;;8.67;5.60;;;19.00;83.50;;;;;;4954914;28;20529;-62
2021/08/31 07:51:35;;;;;;;11.47;7.90;;;18.90;83.60;;;;;;4954101;28;20761;-64
2021/08/31 07:54:02;;;;;;;12.63;8.80;;;18.80;83.90;;;;;;4943214;29;20428;-60
2021/08/31 07:56:29;;;;;;;14.30;10.03;;;18.80;84.40;;;;;;4948538;28;20428;-69
2021/08/31 07:58:57;;;;;;;11.37;7.03;;;18.70;85.00;;;;;;4952232;28;20526;-59
2021/08/31 08:01:24;;;;;;;11.17;6.53;;;18.60;85.30;;;;;;4942506;28;20428;-69
2021/08/31 08:03:51;;;;;;;11.53;7.50;;;18.50;85.80;;;;;;4955027;29;20530;-63
2021/08/31 08:06:19;;;;;;;13.83;11.10;;;18.50;86.30;;;;;;4954477;28;20442;-63
2021/08/31 08:08:46;;;;;;;12.27;8.30;;;18.40;86.50;;;;;;4953548;29;20525;-64
2021/08/31 08:11:14;;;;;;;13.73;8.47;;;18.40;87.00;;;;;;4943232;28;20838;-69
2021/08/31 08:13:41;;;;;;;11.93;7.63;;;18.30;87.60;;;;;;4947137;28;20429;-70
2021/08/31 08:16:09;;;;;;;11.77;7.80;;;18.20;87.90;;;;;;4953983;28;20434;-70
2021/08/31 08:18:36;;;;;;;12.33;9.23;;;18.20;88.10;;;;;;4951409;28;20422;-70
2021/08/31 08:21:03;;;;;;;14.10;10.77;;;18.20;88.70;;;;;;4939031;28;20870;-61
2021/08/31 08:23:31;;;;;;;11.33;7.10;;;18.10;89.30;;;;;;4944461;28;20532;-67
2021/08/31 08:25:59;;;;;;;11.77;8.37;;;18.00;89.70;;;;;;4960932;28;20558;-60
2021/08/31 08:28:27;;;;;;;11.97;8.00;;;18.10;90.10;;;;;;4954010;28;20465;-60
2021/08/31 08:30:54;;;;;;;11.30;7.77;;;18.00;90.40;;;;;;4954300;28;20760;-59
2021/08/31 08:33:22;;;;;;;11.53;7.87;;;18.00;90.60;;;;;;4951228;28;20518;-60
2021/08/31 08:35:50;;;;;;;11.03;7.20;;;17.90;91.00;;;;;;4954954;28;20518;-60
2021/08/31 08:38:19;;;;;;;11.70;8.50;;;17.90;91.60;;;;;;4951986;28;20531;-60
2021/08/31 08:40:46;;;;;;;12.23;9.00;;;17.80;92.20;;;;;;4940706;28;20436;-61
2021/08/31 08:43:15;;;;;;;15.50;13.63;;;17.80;92.70;;;;;;4945128;28;20466;-59
2021/08/31 08:45:49;;;;;;;11.70;8.67;;;17.80;93.00;;;;;;4954031;28;20866;-62
2021/08/31 08:48:20;;;;;;;10.53;6.43;;;17.70;93.30;;;;;;4953912;28;20429;-67
2021/08/31 08:50:48;;;;;;;10.87;7.20;;;17.70;93.40;;;;;;4954618;29;20501;-59
2021/08/31 08:53:16;;;;;;;12.20;9.30;;;17.70;93.60;;;;;;4939895;28;20803;-72
2021/08/31 08:55:44;;;;;;;11.53;8.23;;;17.70;93.70;;;;;;4950381;28;21009;-59
2021/08/31 08:58:11;;;;;;;10.90;7.13;;;17.70;93.90;;;;;;4949516;28;20934;-70
2021/08/31 09:00:58;;;;;;;13.07;10.53;;;17.70;93.90;;;;;;4945244;28;20446;-62
2021/08/31 09:03:26;;;;;;;12.10;9.57;;;17.60;94.20;;;;;;4954097;28;20466;-70
2021/08/31 09:06:19;;;;;;;11.10;7.70;;;17.60;94.50;;;;;;4954097;28;20426;-60
2021/08/31 09:08:55;;;;;;;11.17;7.13;;;17.60;94.40;;;;;;4950856;28;20444;-61
2021/08/31 09:11:40;;;;;;;11.83;8.97;;;17.60;94.60;;;;;;4951409;29;20935;-62
2021/08/31 09:14:32;;;;;;;10.93;6.80;;;17.60;94.60;;;;;;4945846;28;20443;-61
2021/08/31 09:17:02;;;;;;;10.30;6.27;;;17.50;94.80;;;;;;4950635;28;20535;-62
2021/08/31 09:19:32;;;;;;;10.67;6.83;;;17.50;94.90;;;;;;4951305;28;20517;-59
2021/08/31 09:22:24;;;;;;;13.57;11.63;;;17.50;95.20;;;;;;4953789;28;20432;-60
2021/08/31 09:25:08;;;;;;;12.17;9.47;;;17.40;95.40;;;;;;4939768;28;20480;-60
2021/08/31 09:27:39;;;;;;;11.13;7.67;;;17.40;95.50;;;;;;4926929;29;20419;-62
2021/08/31 09:30:22;;;;;;;11.10;7.93;;;17.30;95.70;;;;;;4951804;28;20791;-70
2021/08/31 09:33:09;;;;;;;21.40;19.37;;;17.30;96.00;;;;;;4947046;28;20427;-66
2021/08/31 09:35:42;;;;;;;10.83;7.57;;;17.30;96.00;;;;;;4947382;28;20456;-63
2021/08/31 09:38:14;;;;;;;14.37;12.73;;;17.30;96.40;;;;;;4952769;28;20428;-71
2021/08/31 09:40:46;;;;;;;14.67;11.27;;;17.20;96.40;;;;;;4955679;28;20488;-71
2021/08/31 09:43:21;;;;;;;13.27;11.53;;;17.20;96.40;;;;;;4953395;28;21026;-61
2021/08/31 09:45:54;;;;;;;10.30;6.40;;;17.20;96.60;;;;;;4949117;28;20495;-65
2021/08/31 09:48:22;;;;;;;11.10;8.07;;;17.20;96.90;;;;;;4966745;28;20511;-71
2021/08/31 09:50:58;;;;;;;11.17;8.20;;;17.10;96.90;;;;;;4964316;28;20451;-65
2021/08/31 09:53:28;;;;;;;11.60;8.27;;;17.10;97.10;;;;;;4963343;28;20520;-66
2021/08/31 09:56:09;;;;;;;11.00;7.57;;;17.00;97.30;;;;;;4957923;28;21180;-73
2021/08/31 09:58:41;;;;;;;12.40;10.53;;;17.00;97.50;;;;;;4948876;28;20488;-67
2021/08/31 10:01:09;;;;;;;10.83;7.80;;;17.00;97.50;;;;;;4933904;29;20879;-66
2021/08/31 10:03:39;;;;;;;11.90;9.13;;;17.00;97.50;;;;;;4945665;28;21033;-72
2021/08/31 10:06:07;;;;;;;10.40;7.03;;;16.90;97.60;;;;;;4946510;29;20928;-72
2021/08/31 10:08:38;;;;;;;13.70;11.03;;;16.90;97.80;;;;;;4951181;28;20436;-67
2021/08/31 10:11:06;;;;;;;10.47;7.70;;;16.80;97.80;;;;;;4951790;29;20436;-67
2021/08/31 10:13:41;;;;;;;10.73;8.50;;;16.80;98.00;;;;;;4948543;28;20441;-59
2021/08/31 10:16:09;;;;;;;12.50;11.10;;;16.80;98.20;;;;;;4954597;28;20439;-60
2021/08/31 10:18:37;;;;;;;13.27;11.90;;;16.80;98.30;;;;;;4951163;29;20900;-61
2021/08/31 10:21:14;;;;;;;10.90;8.57;;;16.80;98.30;;;;;;4957465;29;20485;-61
2021/08/31 10:23:49;;;;;;;11.63;9.27;;;16.70;98.30;;;;;;4958209;28;20462;-63
2021/08/31 10:26:38;;;;;;;11.03;8.83;;;16.70;98.60;;;;;;4955710;28;20474;-61
2021/08/31 10:29:17;;;;;;;11.67;9.03;;;16.70;98.50;;;;;;4950959;29;20437;-59
2021/08/31 10:31:47;;;;;;;10.27;6.50;;;16.60;98.50;;;;;;4950257;28;20432;-59
2021/08/31 10:34:33;;;;;;;10.33;6.87;;;16.50;98.60;;;;;;4956098;28;20426;-59
2021/08/31 10:37:13;;;;;;;10.47;6.40;;;16.50;99.00;;;;;;4948265;28;20438;-60
2021/08/31 10:39:53;;;;;;;13.13;10.90;;;16.40;99.20;;;;;;4948748;28;20425;-58
2021/08/31 10:42:32;;;;;;;17.90;16.10;;;16.40;99.10;;;;;;4949575;28;20560;-63
2021/08/31 10:45:01;;;;;;;11.97;9.17;;;16.40;99.20;;;;;;4945925;29;20468;-69
2021/08/31 10:47:37;;;;;;;12.27;8.83;;;16.30;99.50;;;;;;4950172;28;20786;-62
2021/08/31 10:50:13;;;;;;;11.50;7.57;;;16.30;99.70;;;;;;4955625;29;20860;-61
2021/08/31 10:52:49;;;;;;;13.20;10.77;;;16.20;99.90;;;;;;4957447;28;20501;-62
2021/08/31 10:55:26;;;;;;;11.90;8.23;;;16.10;99.90;;;;;;4952876;29;20416;-64
2021/08/31 10:57:54;;;;;;;15.53;12.43;;;16.10;99.90;;;;;;4955896;28;20926;-60
2021/08/31 11:00:21;;;;;;;15.00;13.27;;;16.00;99.90;;;;;;4950265;28;20506;-61
2021/08/31 11:02:49;;;;;;;13.77;10.97;;;16.00;99.90;;;;;;4956756;28;20449;-63
2021/08/31 11:05:25;;;;;;;11.33;7.50;;;16.00;99.90;;;;;;4952442;28;20468;-64
2021/08/31 11:08:00;;;;;;;13.53;11.80;;;16.00;99.80;;;;;;4943991;28;20507;-64
2021/08/31 11:10:30;;;;;;;13.70;10.80;;;16.00;99.70;;;;;;4944834;28;20468;-60
2021/08/31 11:13:08;;;;;;;15.73;13.60;;;16.00;99.70;;;;;;4955398;28;20439;-59
2021/08/31 11:15:35;;;;;;;12.10;8.63;;;16.00;99.80;;;;;;4956878;28;20473;-61
2021/08/31 11:18:09;;;;;;;13.57;11.87;;;16.00;99.70;;;;;;4953770;28;20485;-66
2021/08/31 11:20:38;;;;;;;13.50;10.90;;;16.00;99.70;;;;;;4946299;29;20442;-66
2021/08/31 11:23:22;;;;;;;13.60;9.10;;;16.00;99.90;;;;;;4953887;29;20484;-60
2021/08/31 11:26:01;;;;;;;18.97;16.97;;;16.00;99.90;;;;;;4951758;28;20205;-63
2021/08/31 11:28:31;;;;;;;12.43;8.87;;;15.90;99.90;;;;;;4950553;29;20483;-60
2021/08/31 11:31:12;;;;;;;12.13;8.20;;;15.80;99.90;;;;;;4960367;28;20417;-60
2021/08/31 11:33:44;;;;;;;12.77;9.03;;;15.70;99.90;;;;;;4945923;29;20476;-60
2021/08/31 11:36:13;;;;;;;12.47;8.47;;;15.60;99.90;;;;;;4950920;29;20433;-62
2021/08/31 11:38:48;;;;;;;13.50;10.57;;;15.40;99.90;;;;;;4956381;28;20417;-59
2021/08/31 11:41:30;;;;;;;12.73;8.57;;;15.40;99.90;;;;;;4952307;29;20425;-59
2021/08/31 11:44:04;;;;;;;13.30;9.30;;;15.30;99.90;;;;;;4949913;29;20897;-60
2021/08/31 11:46:34;;;;;;;13.67;9.90;;;15.30;99.90;;;;;;4950188;28;20814;-65
2021/08/31 11:49:21;;;;;;;14.37;11.00;;;15.20;99.90;;;;;;4954021;28;20864;-72
2021/08/31 11:52:18;;;;;;;13.20;9.17;;;15.20;99.90;;;;;;4955720;28;20936;-59
2021/08/31 11:54:56;;;;;;;15.57;10.80;;;15.10;99.90;;;;;;4953236;28;20529;-60
2021/08/31 11:57:31;;;;;;;16.47;14.27;;;15.10;99.90;;;;;;4953428;28;20402;-59
2021/08/31 11:59:58;;;;;;;13.17;9.50;;;15.00;99.90;;;;;;4951309;28;20432;-60
2021/08/31 12:02:30;;;;;;;12.77;9.17;;;15.00;99.90;;;;;;4951615;29;20417;-62
2021/08/31 12:04:58;;;;;;;13.03;8.70;;;15.00;99.90;;;;;;4946727;28;20477;-60
2021/08/31 12:07:30;;;;;;;12.83;9.90;;;14.90;99.90;;;;;;4955468;29;21072;-63
2021/08/31 12:10:01;;;;;;;12.17;8.63;;;14.80;99.90;;;;;;4946744;29;20792;-59
2021/08/31 12:12:30;;;;;;;12.93;8.73;;;14.80;99.90;;;;;;4950661;28;20437;-60
2021/08/31 12:14:57;;;;;;;13.17;9.30;;;14.80;99.90;;;;;;4952851;29;20432;-59
2021/08/31 12:17:43;;;;;;;14.00;9.77;;;14.80;99.90;;;;;;4955368;29;20488;-69
2021/08/31 12:20:23;;;;;;;12.43;8.27;;;14.80;99.90;;;;;;4960949;28;20447;-71
2021/08/31 12:22:57;;;;;;;13.90;11.73;;;14.80;99.90;;;;;;4955195;28;20412;-70
2021/08/31 12:25:24;;;;;;;14.47;12.37;;;14.80;99.90;;;;;;4953128;28;20567;-68
2021/08/31 12:27:54;;;;;;;14.50;12.20;;;14.80;99.90;;;;;;4942486;29;20437;-70
2021/08/31 12:30:44;;;;;;;14.27;12.03;;;14.80;99.90;;;;;;4962334;28;20452;-72
2021/08/31 12:33:21;;;;;;;12.63;8.63;;;14.80;99.90;;;;;;4954651;29;20468;-62
2021/08/31 12:35:59;;;;;;;12.73;8.57;;;14.70;99.90;;;;;;4948753;28;20954;-70
2021/08/31 12:38:33;;;;;;;12.23;8.30;;;14.70;99.90;;;;;;4948850;29;20433;-66